NATURA VA

 INFORMACIÓN METAR y TAF
METAR FOR LELC
ADDS - METARS form results

(0054 UTC 20 May 2019)
Data provider http://aviationweather.gov/metar/data/
 
METAR text: LELC 200030Z AUTO VRB02KT 9999 NCD 14/06 Q1012
Conditions at: LELC (SAN JAVIER(MIL/C, ES) observed 0030 UTC 20 May 2019
Temperature: 14.0°C (57°F)
Dewpoint: 6.0°C (43°F) [RH = 58%]
Pressure (altimeter): 29.88 inches Hg (1012.0 mb)
Winds: variable direction winds at 2 MPH (2 knots; 1.0 m/s)
Visibility: 6 or more miles (10+ km)
Ceiling: at least 12,000 feet AGL
Clouds: sky clear below 12,000 feet AGL
Weather: no significant weather observed at this time

METAR text: LELC 200000Z AUTO 00000KT 9999 NCD 14/06 Q1012
Conditions at: LELC (SAN JAVIER(MIL/C, ES) observed 0000 UTC 20 May 2019
Temperature: 14.0°C (57°F)
Dewpoint: 6.0°C (43°F) [RH = 58%]
Pressure (altimeter): 29.88 inches Hg (1012.0 mb)
Winds: calm
Visibility: 6 or more miles (10+ km)
Ceiling: at least 12,000 feet AGL
Clouds: sky clear below 12,000 feet AGL
Weather: no significant weather observed at this time

Forecast for: LELC (SAN JAVIER(MIL/C, ES)
Text: TAF LELC 192300Z 2000/2024 VRB02KT CAVOK TX23/2013Z TN14/2005Z
Forecast period: 0000 UTC 20 May 2019 to 0000 UTC 21 May 2019
Forecast type: FROM: standard forecast or significant change
Winds: variable direction winds at 2 MPH (2 knots; 1.0 m/s)
Visibility: 6 or more miles 10+ km)
Ceiling: unknown
Clouds: missing
Weather: no significant weather forecast for this period
Text: TEMPO 2010/2016 09010KT
Forecast period: 1000 to 1600 UTC 20 May 2019
Forecast type: TEMPORARY: The following changes expected for less than half the time period
Winds: from the E (90 degrees) at 12 MPH (10 knots; 5.1 m/s)
Visibility: missing
Ceiling: unknown
Clouds: missing
Weather: no significant weather forecast for this period

 MAPA DE AEROPUERTO

 INFORMACIÓN DE PISTA
Pista 05 Longitud 7546 ft Ancho 197 ft
Elevación 11 ft Umbral desplazado 0 ft Rumbo de pista 46
Pista 23 Longitud 7546 ft Ancho 197 ft
Elevación 5 ft Umbral desplazado 0 ft Rumbo de pista 226
Pista 05L Longitud 2867 ft Ancho 197 ft
Elevación 0 ft Umbral desplazado 0 ft Rumbo de pista 46
Pista 23R Longitud 2867 ft Ancho 197 ft
Elevación 0 ft Umbral desplazado 0 ft Rumbo de pista 226
Pista 14 Longitud 2625 ft Ancho 197 ft
Elevación 0 ft Umbral desplazado 0 ft Rumbo de pista 136
Pista 32 Longitud 2625 ft Ancho 197 ft
Elevación 0 ft Umbral desplazado 0 ft Rumbo de pista 316

 FRECUANCIAS DEL AEROPUERTO
Tipo APP Nombre SAN JAVIER Frecuencia 130.3 MHZ
Tipo GND Nombre SAN JAVIER Frecuencia 121.6 MHZ
Tipo TWR Nombre SAN JAVIER Frecuencia 130.3 MHZ

 RADIO AYUDAS DEL AEROPUERTO
Tipo NDB Nombre Murcia/San Javier Frecuencia 381 KHZ
Tipo NDB Nombre Murcia/San Javier Frecuencia 370 KHZ
Tipo TACAN Nombre Murcia/San Javier Frecuencia 113000 KHZ
Tipo VOR-DME Nombre Murcia/San Javier Frecuencia 113000 KHZ



Powered by Virtual Airlines Manager [v2.6.2]